createdAt,value
2017-12-12T00:00:37.038Z,5.00
2017-12-12T00:03:05.218Z,4.90
2017-12-12T00:05:32.627Z,4.80
2017-12-12T00:08:00.035Z,4.80
2017-12-12T00:10:27.453Z,4.80
2017-12-12T00:12:54.861Z,4.80
2017-12-12T00:15:22.302Z,4.70
2017-12-12T00:17:49.705Z,4.60
2017-12-12T00:20:17.121Z,4.60
2017-12-12T00:22:44.535Z,4.50
2017-12-12T00:25:11.946Z,4.40
2017-12-12T00:27:39.362Z,4.40
2017-12-12T00:30:07.546Z,4.50
2017-12-12T00:32:35.725Z,4.50
2017-12-12T00:35:03.138Z,4.50
2017-12-12T00:37:30.538Z,4.50
2017-12-12T00:39:57.945Z,4.50
2017-12-12T00:42:25.358Z,4.50
2017-12-12T00:44:52.766Z,4.40
2017-12-12T00:47:20.172Z,4.40
2017-12-12T00:49:47.585Z,4.30
2017-12-12T00:52:15.523Z,4.20
2017-12-12T00:54:42.930Z,4.20
2017-12-12T00:57:11.108Z,4.10
2017-12-12T00:59:38.529Z,4.10
2017-12-12T01:02:05.929Z,4.10
2017-12-12T01:04:33.708Z,4.10
2017-12-12T01:07:01.115Z,4.10
2017-12-12T01:09:28.520Z,4.10
2017-12-12T01:11:55.926Z,4.10
2017-12-12T01:14:23.337Z,4.20
2017-12-12T01:16:50.741Z,4.10
2017-12-12T01:19:18.153Z,4.10
2017-12-12T01:21:45.554Z,4.20
2017-12-12T01:24:12.965Z,4.20
2017-12-12T01:26:40.374Z,4.20
2017-12-12T01:29:08.545Z,4.00
2017-12-12T01:31:36.720Z,3.90
2017-12-12T01:34:04.885Z,3.80
2017-12-12T01:36:33.053Z,3.80
2017-12-12T01:39:00.464Z,3.80
2017-12-12T01:41:27.866Z,3.70
2017-12-12T01:43:55.286Z,3.70
2017-12-12T01:46:22.694Z,3.70
2017-12-12T01:48:50.866Z,3.60
2017-12-12T01:51:19.045Z,3.60
2017-12-12T01:53:47.218Z,3.60
2017-12-12T01:56:15.397Z,3.50
2017-12-12T01:58:43.567Z,3.50
2017-12-12T02:01:11.744Z,3.40
2017-12-12T02:03:39.913Z,3.40
2017-12-12T02:06:08.090Z,3.30
2017-12-12T02:08:36.264Z,3.30
2017-12-12T02:11:04.440Z,3.20
2017-12-12T02:13:31.841Z,3.20
2017-12-12T02:15:59.261Z,3.10
2017-12-12T02:18:26.669Z,3.00
2017-12-12T02:20:54.103Z,2.90
2017-12-12T02:23:21.514Z,2.80
2017-12-12T02:25:49.710Z,2.80
2017-12-12T02:28:17.112Z,2.80
2017-12-12T02:30:44.525Z,2.70
2017-12-12T02:33:11.949Z,2.70
2017-12-12T02:35:40.125Z,2.50
2017-12-12T02:38:08.305Z,2.50
2017-12-12T02:40:36.478Z,2.30
2017-12-12T02:43:04.665Z,2.20
2017-12-12T02:45:32.088Z,2.20
2017-12-12T02:47:59.489Z,2.30
2017-12-12T02:50:27.568Z,2.20
2017-12-12T02:52:54.977Z,2.20
2017-12-12T02:55:23.146Z,1.80
2017-12-12T02:57:50.562Z,1.80
2017-12-12T03:00:17.977Z,1.70
2017-12-12T03:02:46.193Z,1.50
2017-12-12T03:05:13.598Z,1.40
2017-12-12T03:07:41.773Z,1.20
2017-12-12T03:10:09.953Z,1.10
2017-12-12T03:12:38.130Z,1.10
2017-12-12T03:15:06.314Z,1.10
2017-12-12T03:17:33.713Z,1.10
2017-12-12T03:20:01.130Z,1.10
2017-12-12T03:22:28.529Z,1.00
2017-12-12T03:24:55.948Z,1.00
2017-12-12T03:27:23.350Z,1.00
2017-12-12T03:29:50.771Z,1.00
2017-12-12T03:32:18.201Z,0.90
2017-12-12T03:34:45.613Z,0.90
2017-12-12T03:37:13.021Z,0.90
2017-12-12T03:39:40.442Z,0.80
2017-12-12T03:42:07.840Z,0.80
2017-12-12T03:44:35.257Z,0.80
2017-12-12T03:47:02.666Z,0.80
2017-12-12T03:49:30.089Z,0.90
2017-12-12T03:51:58.261Z,0.70
2017-12-12T03:54:25.682Z,0.70
2017-12-12T03:56:53.082Z,0.70
2017-12-12T03:59:20.496Z,0.70
2017-12-12T04:01:47.905Z,0.70
2017-12-12T04:04:15.314Z,0.70
2017-12-12T04:06:42.727Z,0.80
2017-12-12T04:09:10.130Z,0.70
2017-12-12T04:11:37.541Z,0.70
2017-12-12T04:14:04.945Z,0.70
2017-12-12T04:16:33.129Z,0.70
2017-12-12T04:19:01.310Z,0.70
2017-12-12T04:21:29.485Z,0.70
2017-12-12T04:23:57.670Z,0.70
2017-12-12T04:26:25.074Z,0.70
2017-12-12T04:28:52.498Z,0.70
2017-12-12T04:31:19.902Z,0.70
2017-12-12T04:33:47.313Z,0.70
2017-12-12T04:36:14.722Z,0.70
2017-12-12T04:38:42.921Z,0.80
2017-12-12T04:41:10.333Z,0.80
2017-12-12T04:43:37.751Z,0.70
2017-12-12T04:46:05.151Z,0.60
2017-12-12T04:48:32.561Z,0.60
2017-12-12T04:50:59.966Z,0.60
2017-12-12T04:53:27.370Z,0.60
2017-12-12T04:55:54.782Z,0.60
2017-12-12T04:58:22.189Z,0.60
2017-12-12T05:00:49.597Z,0.60
2017-12-12T05:03:17.764Z,0.70
2017-12-12T05:05:45.174Z,0.70
2017-12-12T05:08:12.583Z,0.70
2017-12-12T05:10:39.986Z,0.60
2017-12-12T05:13:07.393Z,0.60
2017-12-12T05:15:35.545Z,0.60
2017-12-12T05:18:02.945Z,0.60
2017-12-12T05:20:30.363Z,0.60
2017-12-12T05:22:57.761Z,0.60
2017-12-12T05:25:27.104Z,0.60
2017-12-12T05:27:54.510Z,0.60
2017-12-12T05:30:22.685Z,0.60
2017-12-12T05:32:50.857Z,0.70
2017-12-12T05:35:18.278Z,0.60
2017-12-12T05:37:45.688Z,0.70
2017-12-12T05:40:13.227Z,0.70
2017-12-12T05:42:41.397Z,0.70
2017-12-12T05:45:09.579Z,0.70
2017-12-12T05:47:36.981Z,0.70
2017-12-12T05:50:04.404Z,0.70
2017-12-12T05:52:31.796Z,0.70
2017-12-12T05:54:59.214Z,0.70
2017-12-12T05:57:26.630Z,0.70
2017-12-12T05:59:54.035Z,0.80
2017-12-12T06:02:21.449Z,0.80
2017-12-12T06:04:49.617Z,0.90
2017-12-12T06:07:17.033Z,0.80
2017-12-12T06:09:44.433Z,0.80
2017-12-12T06:12:12.609Z,0.90
2017-12-12T06:14:40.786Z,0.90
2017-12-12T06:17:08.968Z,0.90
2017-12-12T06:19:37.145Z,1.00
2017-12-12T06:22:05.313Z,0.90
2017-12-12T06:24:33.496Z,1.00
2017-12-12T06:27:01.698Z,0.90
2017-12-12T06:29:29.089Z,0.90
2017-12-12T06:31:56.509Z,0.90
2017-12-12T06:34:31.031Z,0.90
2017-12-12T06:36:58.428Z,0.90
2017-12-12T06:39:25.843Z,1.00
2017-12-12T06:41:53.257Z,1.00
2017-12-12T06:44:20.663Z,1.00
2017-12-12T06:46:48.067Z,0.90
2017-12-12T06:49:16.244Z,0.80
2017-12-12T06:51:44.426Z,0.90
2017-12-12T06:54:12.600Z,1.00
2017-12-12T06:56:40.009Z,0.90
2017-12-12T06:59:08.193Z,0.80
2017-12-12T07:01:35.596Z,0.80
2017-12-12T07:04:03.021Z,0.80
2017-12-12T07:06:30.429Z,0.80
2017-12-12T07:08:57.833Z,0.80
2017-12-12T07:11:25.244Z,0.80
2017-12-12T07:13:52.657Z,0.80
2017-12-12T07:16:20.841Z,0.90
2017-12-12T07:18:49.008Z,1.00
2017-12-12T07:21:17.181Z,1.00
2017-12-12T07:23:44.589Z,0.90
2017-12-12T07:26:11.997Z,1.00
2017-12-12T07:28:40.170Z,1.00
2017-12-12T07:31:08.344Z,0.90
2017-12-12T07:33:36.525Z,0.90
2017-12-12T07:36:03.936Z,0.80
2017-12-12T07:38:31.343Z,0.90
2017-12-12T07:40:58.745Z,0.90
2017-12-12T07:43:26.166Z,0.90
2017-12-12T07:45:53.577Z,0.80
2017-12-12T07:48:21.750Z,0.80
2017-12-12T07:50:49.166Z,0.80
2017-12-12T07:53:16.573Z,0.80
2017-12-12T07:55:44.748Z,0.80
2017-12-12T07:58:12.921Z,0.80
2017-12-12T08:00:41.090Z,0.80
2017-12-12T08:03:09.269Z,0.80
2017-12-12T08:05:37.444Z,0.80
2017-12-12T08:08:05.634Z,0.90
2017-12-12T08:10:33.042Z,0.90
2017-12-12T08:13:00.461Z,1.10
2017-12-12T08:15:27.874Z,1.20
2017-12-12T08:17:55.273Z,1.30
2017-12-12T08:20:22.686Z,1.30
2017-12-12T08:22:50.093Z,1.30
2017-12-12T08:25:17.498Z,1.40
2017-12-12T08:27:44.921Z,1.60
2017-12-12T08:30:12.317Z,2.00
2017-12-12T08:32:40.726Z,3.00
2017-12-12T08:35:08.129Z,3.00
2017-12-12T08:37:35.533Z,3.70
2017-12-12T08:40:02.945Z,3.90
2017-12-12T08:42:31.369Z,3.90
2017-12-12T08:44:58.791Z,4.30
2017-12-12T08:47:26.193Z,4.60
2017-12-12T08:49:53.609Z,4.30
2017-12-12T08:52:21.777Z,4.70
2017-12-12T08:54:49.957Z,4.70
2017-12-12T08:57:18.131Z,4.80
2017-12-12T08:59:46.309Z,4.60
2017-12-12T09:02:14.477Z,4.60
2017-12-12T09:04:42.775Z,4.80
2017-12-12T09:07:10.181Z,4.80
2017-12-12T09:09:37.708Z,5.10
2017-12-12T09:12:05.125Z,4.70
2017-12-12T09:14:33.285Z,4.50
2017-12-12T09:17:00.698Z,4.50
2017-12-12T09:19:28.106Z,5.20
2017-12-12T09:21:56.281Z,5.70
2017-12-12T09:24:24.464Z,5.50
2017-12-12T09:26:52.645Z,5.50
2017-12-12T09:29:20.062Z,5.50
2017-12-12T09:31:47.461Z,5.70
2017-12-12T09:34:14.886Z,5.90
2017-12-12T09:36:42.295Z,6.10
2017-12-12T09:39:09.701Z,6.70
2017-12-12T09:41:37.871Z,6.70
2017-12-12T09:44:05.289Z,6.70
2017-12-12T09:46:32.736Z,6.80
2017-12-12T09:49:00.133Z,6.80
2017-12-12T09:51:27.560Z,6.90
2017-12-12T09:53:54.960Z,6.90
2017-12-12T09:56:22.374Z,7.20
2017-12-12T09:58:49.785Z,7.10
2017-12-12T10:01:17.951Z,7.10
2017-12-12T10:03:46.119Z,7.10
2017-12-12T10:06:13.541Z,7.10
2017-12-12T10:08:40.941Z,7.40
2017-12-12T10:11:09.125Z,7.70
2017-12-12T10:13:37.303Z,7.00
2017-12-12T10:16:05.480Z,7.10
2017-12-12T10:18:32.882Z,7.10
2017-12-12T10:21:00.308Z,7.40
2017-12-12T10:23:27.709Z,7.10
2017-12-12T10:25:55.129Z,7.20
2017-12-12T10:28:22.545Z,7.30
2017-12-12T10:30:51.723Z,7.30
2017-12-12T10:33:19.889Z,7.20
2017-12-12T10:35:48.818Z,7.30
2017-12-12T10:38:16.280Z,7.30
2017-12-12T10:40:44.470Z,8.00
2017-12-12T10:43:11.886Z,8.00
2017-12-12T10:45:40.113Z,7.70
2017-12-12T10:48:07.530Z,7.70
2017-12-12T10:50:35.712Z,7.60
2017-12-12T10:53:03.891Z,7.30
2017-12-12T10:55:31.303Z,7.30
2017-12-12T10:57:58.715Z,7.00
2017-12-12T11:00:26.124Z,7.00
2017-12-12T11:02:53.533Z,7.20
2017-12-12T11:05:20.941Z,7.50
2017-12-12T11:07:49.129Z,7.40
2017-12-12T11:10:17.317Z,7.60
2017-12-12T11:12:44.724Z,7.50
2017-12-12T11:15:12.143Z,7.80
2017-12-12T11:17:39.548Z,8.10
2017-12-12T11:20:07.722Z,7.60
2017-12-12T11:22:35.897Z,7.70
2017-12-12T11:25:03.308Z,7.70
2017-12-12T11:27:30.726Z,8.10
2017-12-12T11:29:58.901Z,8.20
2017-12-12T11:32:27.091Z,8.90
2017-12-12T11:34:54.488Z,8.90
2017-12-12T11:37:25.757Z,9.00
2017-12-12T11:39:53.160Z,8.40
2017-12-12T11:42:20.564Z,8.20
2017-12-12T11:44:47.978Z,8.40
2017-12-12T11:47:15.404Z,8.50
2017-12-12T11:49:43.589Z,9.40
2017-12-12T11:52:10.981Z,9.40
2017-12-12T11:54:38.398Z,9.50
2017-12-12T11:57:05.805Z,9.50
2017-12-12T11:59:33.228Z,9.80
2017-12-12T12:02:00.641Z,10.60
2017-12-12T12:04:28.058Z,10.60
2017-12-12T12:06:55.472Z,10.50
2017-12-12T12:09:23.649Z,10.00
2017-12-12T12:11:51.057Z,10.00
2017-12-12T12:14:19.239Z,10.50
2017-12-12T12:16:46.657Z,10.40
2017-12-12T12:19:14.293Z,10.20
2017-12-12T12:21:41.702Z,10.80
2017-12-12T12:24:09.118Z,10.60
2017-12-12T12:26:36.530Z,10.00
2017-12-12T12:29:03.929Z,9.50
2017-12-12T12:31:31.336Z,8.60
2017-12-12T12:33:58.745Z,8.40
2017-12-12T12:36:26.157Z,8.60
2017-12-12T12:38:54.324Z,7.30
2017-12-12T12:41:21.743Z,7.30
2017-12-12T12:43:49.149Z,7.00
2017-12-12T12:46:17.336Z,6.30
2017-12-12T12:48:45.513Z,6.20
2017-12-12T12:51:13.688Z,6.00
2017-12-12T12:53:41.856Z,5.80
2017-12-12T12:56:10.049Z,5.50
2017-12-12T12:58:37.453Z,5.40
2017-12-12T13:01:04.872Z,5.20
2017-12-12T13:03:32.278Z,5.00
2017-12-12T13:05:59.690Z,4.90
2017-12-12T13:08:27.102Z,4.70
2017-12-12T13:10:55.275Z,4.50
2017-12-12T13:13:23.441Z,4.40
2017-12-12T13:15:51.606Z,4.40
2017-12-12T13:18:19.553Z,4.40
2017-12-12T13:20:48.086Z,4.40
2017-12-12T13:23:16.261Z,4.20
2017-12-12T13:25:44.429Z,4.00
2017-12-12T13:28:12.609Z,4.00
2017-12-12T13:30:40.781Z,4.00
2017-12-12T13:33:08.961Z,3.90
2017-12-12T13:35:36.374Z,3.90
2017-12-12T13:38:03.862Z,3.80
2017-12-12T13:40:32.039Z,3.80
2017-12-12T13:43:00.217Z,3.80
2017-12-12T13:45:27.620Z,3.80
2017-12-12T13:47:55.049Z,3.80
2017-12-12T13:50:22.462Z,3.90
2017-12-12T13:52:49.870Z,4.00
2017-12-12T13:55:17.289Z,3.70
2017-12-12T13:57:45.457Z,3.70
2017-12-12T14:00:13.633Z,3.80
2017-12-12T14:02:41.800Z,3.80
2017-12-12T14:05:10.980Z,3.90
2017-12-12T14:07:38.499Z,3.90
2017-12-12T14:10:05.991Z,3.90
2017-12-12T14:12:33.418Z,4.00
2017-12-12T14:15:00.814Z,3.90
2017-12-12T14:17:28.277Z,3.80
2017-12-12T14:19:55.633Z,3.80
2017-12-12T14:22:23.042Z,3.70
2017-12-12T14:24:50.457Z,3.70
2017-12-12T14:27:18.622Z,3.70
2017-12-12T14:29:46.801Z,3.80
2017-12-12T14:32:14.978Z,3.90
2017-12-12T14:34:43.154Z,3.80
2017-12-12T14:37:11.320Z,3.70
2017-12-12T14:39:39.570Z,3.70
2017-12-12T14:42:06.982Z,3.70
2017-12-12T14:44:34.393Z,3.50
2017-12-12T14:47:01.797Z,3.60
2017-12-12T14:49:29.210Z,3.50
2017-12-12T14:51:57.385Z,3.40
2017-12-12T14:54:25.561Z,3.40
2017-12-12T14:56:53.738Z,3.40
2017-12-12T14:59:21.948Z,3.30
2017-12-12T15:01:49.356Z,3.30
2017-12-12T15:04:16.779Z,3.30
2017-12-12T15:06:44.169Z,3.30
2017-12-12T15:09:11.597Z,3.30
2017-12-12T15:11:39.005Z,3.30
2017-12-12T15:14:07.314Z,3.10
2017-12-12T15:16:34.721Z,3.10
2017-12-12T15:19:02.125Z,3.10
2017-12-12T15:21:29.565Z,3.00
2017-12-12T15:23:56.974Z,3.00
2017-12-12T15:26:25.901Z,3.00
2017-12-12T15:28:53.301Z,3.00
2017-12-12T15:31:20.726Z,3.00
2017-12-12T15:33:48.134Z,3.00
2017-12-12T15:36:15.554Z,3.00
2017-12-12T15:38:42.962Z,3.10
2017-12-12T15:41:11.132Z,3.00
2017-12-12T15:43:38.545Z,2.90
2017-12-12T15:46:05.976Z,3.00
2017-12-12T15:48:33.393Z,3.10
2017-12-12T15:51:00.802Z,3.00
2017-12-12T15:53:28.217Z,3.00
2017-12-12T15:55:56.381Z,3.00
2017-12-12T15:58:23.796Z,2.90
2017-12-12T16:00:51.202Z,2.90
2017-12-12T16:03:19.386Z,2.80
2017-12-12T16:05:57.221Z,2.80
2017-12-12T16:08:24.635Z,2.80
2017-12-12T16:10:52.808Z,2.70
2017-12-12T16:13:20.997Z,2.70
2017-12-12T16:15:49.774Z,2.70
2017-12-12T16:18:17.940Z,2.70
2017-12-12T16:20:46.117Z,2.70
2017-12-12T16:23:14.281Z,2.70
2017-12-12T16:25:41.697Z,2.60
2017-12-12T16:28:09.105Z,2.60
2017-12-12T16:30:37.299Z,2.70
2017-12-12T16:33:04.697Z,2.60
2017-12-12T16:35:32.224Z,2.60
2017-12-12T16:37:59.633Z,2.60
2017-12-12T16:40:27.137Z,2.60
2017-12-12T16:42:54.600Z,2.60
2017-12-12T16:45:22.038Z,2.60
2017-12-12T16:47:50.201Z,2.70
2017-12-12T16:50:18.376Z,2.70
2017-12-12T16:52:46.541Z,2.80
2017-12-12T16:55:14.752Z,2.90
2017-12-12T16:57:42.163Z,2.80
2017-12-12T17:00:10.196Z,2.70
2017-12-12T17:02:37.589Z,2.70
2017-12-12T17:05:05.805Z,2.60
2017-12-12T17:07:33.362Z,2.60
2017-12-12T17:10:00.774Z,2.60
2017-12-12T17:12:28.184Z,2.60
2017-12-12T17:14:55.631Z,2.70
2017-12-12T17:17:23.030Z,2.60
2017-12-12T17:19:50.539Z,2.60
2017-12-12T17:22:17.941Z,2.60
2017-12-12T17:24:45.357Z,2.60
2017-12-12T17:27:12.764Z,2.50
2017-12-12T17:29:40.953Z,2.30
2017-12-12T17:44:03.314Z,2.20
2017-12-12T17:46:30.713Z,2.30
2017-12-12T17:48:58.129Z,2.30
2017-12-12T17:51:25.524Z,2.30
2017-12-12T17:53:52.940Z,2.20
2017-12-12T17:56:20.349Z,2.20
2017-12-12T17:58:48.535Z,2.20
2017-12-12T18:01:16.705Z,2.20
2017-12-12T18:03:44.881Z,2.20
2017-12-12T18:06:13.049Z,2.20
2017-12-12T18:08:41.241Z,2.20
2017-12-12T18:11:08.642Z,2.20
2017-12-12T18:13:36.180Z,2.10
2017-12-12T18:16:03.577Z,2.10
2017-12-12T18:18:30.986Z,2.00
2017-12-12T18:20:58.395Z,2.10
2017-12-12T18:23:25.792Z,2.10
2017-12-12T18:25:53.205Z,2.10
2017-12-12T18:28:20.618Z,2.00
2017-12-12T18:30:48.056Z,1.90
2017-12-12T18:33:15.458Z,1.90
2017-12-12T18:35:42.882Z,2.00
2017-12-12T18:38:10.286Z,1.80
2017-12-12T18:40:38.453Z,1.70
2017-12-12T18:43:05.862Z,1.70
2017-12-12T18:45:33.273Z,1.70
2017-12-12T18:48:00.677Z,1.70
2017-12-12T18:50:28.097Z,1.60
2017-12-12T18:52:56.270Z,1.50
2017-12-12T18:55:24.466Z,1.50
2017-12-12T18:57:51.869Z,1.50
2017-12-12T19:00:20.048Z,1.50
2017-12-12T19:02:47.463Z,1.40
2017-12-12T19:05:14.865Z,1.30
2017-12-12T19:07:42.371Z,1.30
2017-12-12T19:10:09.777Z,1.20
2017-12-12T19:12:37.192Z,1.10
2017-12-12T19:15:04.589Z,1.10
2017-12-12T19:17:32.065Z,1.20
2017-12-12T19:20:00.253Z,1.10
2017-12-12T19:22:27.666Z,1.00
2017-12-12T19:24:55.082Z,1.10
2017-12-12T19:27:22.493Z,1.20
2017-12-12T19:29:49.897Z,1.20
2017-12-12T19:32:17.304Z,1.20
2017-12-12T19:34:44.717Z,1.20
2017-12-12T19:37:12.157Z,1.20
2017-12-12T19:39:39.619Z,1.20
2017-12-12T19:42:07.020Z,1.20
2017-12-12T19:44:35.944Z,1.30
2017-12-12T19:47:04.625Z,1.30
2017-12-12T19:49:32.932Z,1.20
2017-12-12T19:52:00.372Z,1.20
2017-12-12T19:54:27.780Z,1.30
2017-12-12T19:56:55.299Z,1.20
2017-12-12T19:59:22.712Z,1.30
2017-12-12T20:01:50.110Z,1.20
2017-12-12T20:04:17.516Z,1.20
2017-12-12T20:06:44.928Z,1.20
2017-12-12T20:09:12.341Z,1.20
2017-12-12T20:11:46.189Z,1.10
2017-12-12T20:14:14.214Z,1.10
2017-12-12T20:16:42.389Z,1.00
2017-12-12T20:19:10.581Z,1.00
2017-12-12T20:21:37.985Z,1.00
2017-12-12T20:24:05.394Z,1.00
2017-12-12T20:26:32.806Z,0.90
2017-12-12T20:29:00.328Z,0.90
2017-12-12T20:31:28.264Z,0.90
2017-12-12T20:33:56.440Z,0.80
2017-12-12T20:36:24.641Z,0.80
2017-12-12T20:38:52.102Z,0.80
2017-12-12T20:41:19.509Z,0.80
2017-12-12T20:43:47.016Z,0.80
2017-12-12T20:46:14.428Z,0.70
2017-12-12T20:48:42.597Z,0.70
2017-12-12T20:51:10.014Z,0.70
2017-12-12T20:53:37.425Z,0.70
2017-12-12T20:56:05.610Z,0.80
2017-12-12T20:58:33.009Z,0.70
2017-12-12T21:01:00.549Z,0.80
2017-12-12T21:03:27.947Z,0.70
2017-12-12T21:05:56.126Z,0.70
2017-12-12T21:08:23.524Z,0.70
2017-12-12T21:10:50.945Z,0.60
2017-12-12T21:13:19.114Z,0.60
2017-12-12T21:15:46.613Z,0.60
2017-12-12T21:18:14.026Z,0.60
2017-12-12T21:20:41.532Z,0.60
2017-12-12T21:23:08.950Z,0.60
2017-12-12T21:25:37.158Z,0.70
2017-12-12T21:28:05.304Z,0.60
2017-12-12T21:30:33.465Z,0.60
2017-12-12T21:33:01.660Z,0.60
2017-12-12T21:35:29.818Z,0.70
2017-12-12T21:37:58.003Z,0.70
2017-12-12T21:40:26.164Z,0.80
2017-12-12T21:42:54.372Z,0.90
2017-12-12T21:45:21.773Z,0.90
2017-12-12T21:47:49.202Z,1.00
2017-12-12T21:50:16.594Z,1.00
2017-12-12T21:52:44.773Z,1.20
2017-12-12T21:55:12.177Z,1.20
2017-12-12T21:57:39.585Z,1.30
2017-12-12T22:00:07.754Z,1.40
2017-12-12T22:02:35.161Z,1.40
2017-12-12T22:05:02.562Z,1.50
2017-12-12T22:07:30.065Z,1.50
2017-12-12T22:09:57.469Z,1.60
2017-12-12T22:12:24.873Z,1.60
2017-12-12T22:14:52.277Z,1.50
2017-12-12T22:17:19.685Z,1.50
2017-12-12T22:19:47.085Z,1.60
2017-12-12T22:22:14.497Z,1.60
2017-12-12T22:24:41.916Z,1.60
2017-12-12T22:27:09.331Z,1.70
2017-12-12T22:29:36.725Z,1.60
2017-12-12T22:32:04.138Z,1.70
2017-12-12T22:34:31.587Z,1.70
2017-12-12T22:36:58.988Z,1.60
2017-12-12T22:39:26.393Z,1.70
2017-12-12T22:41:53.805Z,1.80
2017-12-12T22:44:21.206Z,1.80
2017-12-12T22:46:48.625Z,1.70
2017-12-12T22:49:16.028Z,1.70
2017-12-12T22:51:43.441Z,1.50
2017-12-12T22:54:11.613Z,1.30
2017-12-12T22:56:39.793Z,1.30
2017-12-12T22:59:07.969Z,1.20
2017-12-12T23:01:36.162Z,1.30
2017-12-12T23:04:03.563Z,1.20
2017-12-12T23:06:31.087Z,1.20
2017-12-12T23:08:58.484Z,1.00
2017-12-12T23:11:25.884Z,1.00
2017-12-12T23:13:53.302Z,1.00
2017-12-12T23:16:20.713Z,0.90
2017-12-12T23:18:48.117Z,0.90
2017-12-12T23:21:15.623Z,0.90
2017-12-12T23:23:43.027Z,0.80
2017-12-12T23:26:10.429Z,0.80
2017-12-12T23:28:37.841Z,0.70
2017-12-12T23:31:05.253Z,0.80
2017-12-12T23:33:32.667Z,0.80
2017-12-12T23:36:00.833Z,1.00
2017-12-12T23:38:29.007Z,1.00
2017-12-12T23:40:56.414Z,1.00
2017-12-12T23:43:23.825Z,1.00
2017-12-12T23:45:51.997Z,1.10
2017-12-12T23:48:20.172Z,1.10
2017-12-12T23:50:48.347Z,1.20
2017-12-12T23:53:16.516Z,1.30
2017-12-12T23:55:44.686Z,1.20
2017-12-12T23:58:12.865Z,1.20
